Time;durP1;ratioP1;P1;durP2;ratioP2;P2;SDS_P1;SDS_P2;PMS_P1;PMS_P2;Temp;Humidity;BMP_temperature;BMP_pressure;BME280_temperature;BME280_humidity;BME280_pressure;Samples;Min_cycle;Max_cycle;Signal;HPM_P1;HPM_P2
2023/07/05 00:00:49;;;;;;;11.73;4.33;;;;;;;;;;5046030;28;20271;-71
2023/07/05 00:03:14;;;;;;;10.90;4.60;;;;;;;;;;5046149;28;20409;-71
2023/07/05 00:05:39;;;;;;;10.32;3.65;;;;;;;;;;5044539;28;20271;-71
2023/07/05 00:08:05;;;;;;;7.40;2.65;;;;;;;;;;5049511;28;20029;-71
2023/07/05 00:10:30;;;;;;;9.27;4.78;;;;;;;;;;5045510;28;20044;-70
2023/07/05 00:12:55;;;;;;;8.20;3.57;;;;;;;;;;5048253;28;20025;-71
2023/07/05 00:15:20;;;;;;;16.37;5.63;;;;;;;;;;5045528;28;20769;-71
2023/07/05 00:17:45;;;;;;;8.43;3.43;;;;;;;;;;5042808;28;20306;-70
2023/07/05 00:20:11;;;;;;;6.43;2.85;;;;;;;;;;5042366;28;20386;-70
2023/07/05 00:22:36;;;;;;;9.93;3.30;;;;;;;;;;5046314;28;20208;-71
2023/07/05 00:25:02;;;;;;;7.05;2.25;;;;;;;;;;5046238;28;20477;-70
2023/07/05 00:27:27;;;;;;;6.55;2.03;;;;;;;;;;5039793;28;20053;-71
2023/07/05 00:29:53;;;;;;;5.47;2.50;;;;;;;;;;5043098;28;20386;-70
2023/07/05 00:32:18;;;;;;;7.28;3.47;;;;;;;;;;5048803;28;20063;-71
2023/07/05 00:34:44;;;;;;;7.07;3.33;;;;;;;;;;5047705;28;20048;-70
2023/07/05 00:37:09;;;;;;;8.37;3.53;;;;;;;;;;5047316;28;20039;-71
2023/07/05 00:39:34;;;;;;;5.13;2.80;;;;;;;;;;5045875;28;20091;-70
2023/07/05 00:41:59;;;;;;;9.98;3.45;;;;;;;;;;5048192;28;20032;-70
2023/07/05 00:44:24;;;;;;;17.92;2.65;;;;;;;;;;5048996;28;20045;-71
2023/07/05 00:46:53;;;;;;;9.18;2.85;;;;;;;;;;5045923;28;20037;-70
2023/07/05 00:49:20;;;;;;;6.45;3.22;;;;;;;;;;5046385;28;20392;-71
2023/07/05 00:51:45;;;;;;;9.10;2.20;;;;;;;;;;5049030;28;20112;-70
2023/07/05 00:54:11;;;;;;;3.77;1.67;;;;;;;;;;5047364;28;20052;-70
2023/07/05 00:56:39;;;;;;;5.80;2.80;;;;;;;;;;5047587;28;20287;-71
2023/07/05 00:59:05;;;;;;;9.68;2.70;;;;;;;;;;5045541;28;20024;-69
2023/07/05 01:01:30;;;;;;;7.93;2.65;;;;;;;;;;5045523;28;20035;-70
2023/07/05 01:03:58;;;;;;;4.20;2.17;;;;;;;;;;5050006;28;20033;-70
2023/07/05 01:06:23;;;;;;;9.68;2.55;;;;;;;;;;5047596;28;20870;-70
2023/07/05 01:08:49;;;;;;;6.18;2.80;;;;;;;;;;5048111;28;20112;-70
2023/07/05 01:11:22;;;;;;;1.17;0.68;;;;;;;;;;5046657;28;20692;-71
2023/07/05 01:13:54;;;;;;;4.20;1.95;;;;;;;;;;5041773;28;20025;-70
2023/07/05 01:16:22;;;;;;;4.13;1.42;;;;;;;;;;5046056;28;20075;-70
2023/07/05 01:18:53;;;;;;;13.00;3.65;;;;;;;;;;5043469;28;20013;-70
2023/07/05 01:21:27;;;;;;;2.90;1.60;;;;;;;;;;5045515;28;20418;-71
2023/07/05 01:24:11;;;;;;;9.70;2.70;;;;;;;;;;5047795;28;20422;-71
2023/07/05 01:26:43;;;;;;;9.18;3.22;;;;;;;;;;5046418;28;20025;-70
2023/07/05 01:29:11;;;;;;;6.65;2.42;;;;;;;;;;5044686;28;20025;-70
2023/07/05 01:31:44;;;;;;;3.75;2.45;;;;;;;;;;5046805;28;20017;-70
2023/07/05 01:34:14;;;;;;;2.42;1.38;;;;;;;;;;5046375;28;20078;-71
2023/07/05 01:36:39;;;;;;;6.25;1.85;;;;;;;;;;5047416;28;20115;-70
2023/07/05 01:39:04;;;;;;;4.63;2.53;;;;;;;;;;5045462;28;20218;-70
2023/07/05 01:41:30;;;;;;;10.30;2.77;;;;;;;;;;5042954;28;20470;-71
2023/07/05 01:43:55;;;;;;;6.60;2.55;;;;;;;;;;5048619;28;20271;-70
2023/07/05 01:46:33;;;;;;;2.88;1.63;;;;;;;;;;5046626;28;20033;-70
2023/07/05 01:49:04;;;;;;;4.50;2.10;;;;;;;;;;5043095;28;20030;-71
2023/07/05 01:51:29;;;;;;;7.70;2.28;;;;;;;;;;5040876;28;20021;-70
2023/07/05 01:54:00;;;;;;;7.82;2.55;;;;;;;;;;5044622;28;20017;-70
2023/07/05 01:56:30;;;;;;;2.65;1.88;;;;;;;;;;5042606;28;20025;-70
2023/07/05 01:58:58;;;;;;;6.50;2.08;;;;;;;;;;5042943;28;20017;-70
2023/07/05 02:01:24;;;;;;;4.90;2.10;;;;;;;;;;5047044;28;20029;-70
2023/07/05 02:03:49;;;;;;;5.18;2.00;;;;;;;;;;5051929;28;20017;-70
2023/07/05 02:06:15;;;;;;;7.55;2.42;;;;;;;;;;5049249;28;20024;-70
2023/07/05 02:08:42;;;;;;;3.22;1.83;;;;;;;;;;5051021;28;20478;-70
2023/07/05 02:11:07;;;;;;;2.85;1.70;;;;;;;;;;5046750;28;20029;-70
2023/07/05 02:13:33;;;;;;;9.98;2.35;;;;;;;;;;5049930;28;20021;-70
2023/07/05 02:15:58;;;;;;;1.35;0.95;;;;;;;;;;5051742;28;20620;-70
2023/07/05 02:18:29;;;;;;;11.40;2.13;;;;;;;;;;5050185;28;20140;-70
2023/07/05 02:20:54;;;;;;;4.30;1.77;;;;;;;;;;5041716;28;20041;-70
2023/07/05 02:23:19;;;;;;;9.05;2.15;;;;;;;;;;5047154;28;20399;-70
2023/07/05 02:25:44;;;;;;;5.20;1.67;;;;;;;;;;5051613;28;20501;-70
2023/07/05 02:28:10;;;;;;;4.47;2.33;;;;;;;;;;5051387;28;20041;-70
2023/07/05 02:30:39;;;;;;;4.00;2.30;;;;;;;;;;5048111;28;20297;-70
2023/07/05 02:33:04;;;;;;;4.05;2.55;;;;;;;;;;5049321;28;20322;-70
2023/07/05 02:35:29;;;;;;;5.70;1.97;;;;;;;;;;5049497;28;20485;-71
2023/07/05 02:37:55;;;;;;;2.80;1.97;;;;;;;;;;5051125;28;20025;-71
2023/07/05 02:40:20;;;;;;;5.60;2.92;;;;;;;;;;5050756;28;20263;-71
2023/07/05 02:42:45;;;;;;;4.68;2.60;;;;;;;;;;5049044;28;20103;-71
2023/07/05 02:45:11;;;;;;;3.30;1.83;;;;;;;;;;5051933;28;20029;-71
2023/07/05 02:47:36;;;;;;;3.00;1.33;;;;;;;;;;5046627;28;20644;-71
2023/07/05 02:50:01;;;;;;;7.60;2.47;;;;;;;;;;5048861;28;20017;-71
2023/07/05 02:52:26;;;;;;;9.35;2.53;;;;;;;;;;5050188;28;20710;-71
2023/07/05 02:54:51;;;;;;;5.87;2.20;;;;;;;;;;5045210;28;20017;-71
2023/07/05 02:57:17;;;;;;;5.20;2.77;;;;;;;;;;5050474;28;20042;-71
2023/07/05 02:59:42;;;;;;;3.10;1.13;;;;;;;;;;5050669;28;20275;-71
2023/07/05 03:02:10;;;;;;;7.20;1.52;;;;;;;;;;5047065;28;20382;-71
2023/07/05 03:04:35;;;;;;;6.63;1.65;;;;;;;;;;5050694;28;20027;-71
2023/07/05 03:07:01;;;;;;;2.40;1.20;;;;;;;;;;5050779;28;20024;-71
2023/07/05 03:09:26;;;;;;;1.60;1.27;;;;;;;;;;5048875;28;20029;-71
2023/07/05 03:11:51;;;;;;;4.50;1.45;;;;;;;;;;5048614;28;20271;-71
2023/07/05 03:14:16;;;;;;;4.60;2.73;;;;;;;;;;5048109;28;20482;-71
2023/07/05 03:16:41;;;;;;;6.45;2.30;;;;;;;;;;5050199;28;20016;-71
2023/07/05 03:19:07;;;;;;;7.10;2.13;;;;;;;;;;5050800;28;20082;-71
2023/07/05 03:21:32;;;;;;;2.20;1.70;;;;;;;;;;5048459;28;20276;-71
2023/07/05 03:23:57;;;;;;;4.72;1.90;;;;;;;;;;5046539;28;20071;-71
2023/07/05 03:26:22;;;;;;;10.33;1.80;;;;;;;;;;5048642;28;20066;-71
2023/07/05 03:28:47;;;;;;;4.97;1.60;;;;;;;;;;5050062;28;20325;-71
2023/07/05 03:31:14;;;;;;;4.40;1.60;;;;;;;;;;5048378;28;20298;-71
2023/07/05 03:33:40;;;;;;;8.07;1.67;;;;;;;;;;5048376;28;20271;-71
2023/07/05 03:36:06;;;;;;;4.70;1.77;;;;;;;;;;5048708;28;20027;-71
2023/07/05 03:38:32;;;;;;;3.60;1.98;;;;;;;;;;5049013;28;20709;-70
2023/07/05 03:41:11;;;;;;;8.15;2.30;;;;;;;;;;5047144;28;20100;-70
2023/07/05 03:43:36;;;;;;;4.38;2.42;;;;;;;;;;5046427;28;20029;-70
2023/07/05 03:46:02;;;;;;;8.27;3.67;;;;;;;;;;5048346;28;20023;-71
2023/07/05 03:48:29;;;;;;;5.90;2.35;;;;;;;;;;5048655;28;20028;-70
2023/07/05 03:50:54;;;;;;;5.22;2.40;;;;;;;;;;5047114;28;20016;-70
2023/07/05 03:53:20;;;;;;;3.38;1.67;;;;;;;;;;5045698;28;20038;-71
2023/07/05 03:55:45;;;;;;;3.33;1.50;;;;;;;;;;5048832;28;20055;-70
2023/07/05 03:58:10;;;;;;;4.27;1.90;;;;;;;;;;5045480;28;20024;-70
2023/07/05 04:00:35;;;;;;;2.70;1.27;;;;;;;;;;5049423;28;20028;-70
2023/07/05 04:03:00;;;;;;;2.58;1.35;;;;;;;;;;5048378;28;20263;-70
2023/07/05 04:05:25;;;;;;;2.23;1.03;;;;;;;;;;5046579;28;20111;-70
2023/07/05 04:07:51;;;;;;;4.03;1.50;;;;;;;;;;5046715;28;20410;-70
2023/07/05 04:10:16;;;;;;;4.93;1.40;;;;;;;;;;5049743;28;20092;-70
2023/07/05 04:12:41;;;;;;;3.50;1.77;;;;;;;;;;5046682;28;20275;-70
2023/07/05 04:15:06;;;;;;;4.73;1.70;;;;;;;;;;5049436;28;20771;-70
2023/07/05 04:17:32;;;;;;;4.95;1.55;;;;;;;;;;5047567;28;20127;-70
2023/07/05 04:19:57;;;;;;;6.07;1.93;;;;;;;;;;5046964;28;20108;-70
2023/07/05 04:22:22;;;;;;;3.90;1.80;;;;;;;;;;5046215;28;20028;-70
2023/07/05 04:24:47;;;;;;;4.83;1.80;;;;;;;;;;5048752;28;20021;-70
2023/07/05 04:27:13;;;;;;;3.72;1.38;;;;;;;;;;5047461;28;20315;-70
2023/07/05 04:29:38;;;;;;;4.80;1.77;;;;;;;;;;5046718;28;20029;-70
2023/07/05 04:32:03;;;;;;;3.57;1.50;;;;;;;;;;5047330;28;20017;-70
2023/07/05 04:34:28;;;;;;;3.78;2.00;;;;;;;;;;5046948;28;20751;-70
2023/07/05 04:36:54;;;;;;;5.40;2.00;;;;;;;;;;5048029;28;20021;-71
2023/07/05 04:39:19;;;;;;;3.43;1.70;;;;;;;;;;5047679;28;20033;-70
2023/07/05 04:41:44;;;;;;;2.97;1.47;;;;;;;;;;5045917;28;20013;-70
2023/07/05 04:44:10;;;;;;;3.45;1.98;;;;;;;;;;5048084;28;20064;-70
2023/07/05 04:46:35;;;;;;;7.00;1.60;;;;;;;;;;5047540;28;20025;-71
2023/07/05 04:49:00;;;;;;;5.03;1.60;;;;;;;;;;5047411;28;20051;-70
2023/07/05 04:51:25;;;;;;;2.73;1.63;;;;;;;;;;5047844;28;20013;-69
2023/07/05 04:53:51;;;;;;;3.73;1.80;;;;;;;;;;5048261;28;20627;-70
2023/07/05 04:56:16;;;;;;;8.63;3.50;;;;;;;;;;5047509;28;20275;-70
2023/07/05 04:58:41;;;;;;;5.40;1.90;;;;;;;;;;5048203;28;20438;-69
2023/07/05 05:01:07;;;;;;;5.55;1.50;;;;;;;;;;5045473;28;20464;-70
2023/07/05 05:03:33;;;;;;;5.65;1.75;;;;;;;;;;5047268;28;20474;-70
2023/07/05 05:05:58;;;;;;;5.78;1.80;;;;;;;;;;5047401;28;20163;-70
2023/07/05 05:08:24;;;;;;;6.30;1.60;;;;;;;;;;5047059;28;20036;-70
2023/07/05 05:10:57;;;;;;;7.07;2.10;;;;;;;;;;5046569;28;20025;-70
2023/07/05 05:13:22;;;;;;;3.90;1.83;;;;;;;;;;5048171;28;20028;-70
2023/07/05 05:15:48;;;;;;;9.55;2.50;;;;;;;;;;5045512;28;20025;-70
2023/07/05 05:18:13;;;;;;;7.00;2.15;;;;;;;;;;5045573;28;20033;-70
2023/07/05 05:20:38;;;;;;;7.80;2.33;;;;;;;;;;5043637;28;20017;-70
2023/07/05 05:23:04;;;;;;;5.13;2.20;;;;;;;;;;5047854;28;20041;-69
2023/07/05 05:25:29;;;;;;;6.50;2.10;;;;;;;;;;5040059;28;20043;-69
2023/07/05 05:27:54;;;;;;;6.03;2.53;;;;;;;;;;5042992;28;20025;-69
2023/07/05 05:30:20;;;;;;;8.57;2.72;;;;;;;;;;5045224;28;20271;-69
2023/07/05 05:32:46;;;;;;;6.97;2.55;;;;;;;;;;5044608;28;20013;-69
2023/07/05 05:35:11;;;;;;;5.30;2.05;;;;;;;;;;5045304;28;20017;-70
2023/07/05 05:37:36;;;;;;;5.40;2.15;;;;;;;;;;5044986;28;20037;-69
2023/07/05 05:40:02;;;;;;;5.30;2.30;;;;;;;;;;5050153;28;20096;-69
2023/07/05 05:42:27;;;;;;;7.07;3.08;;;;;;;;;;5049568;28;20795;-69
2023/07/05 05:44:52;;;;;;;6.70;2.60;;;;;;;;;;5046029;28;20033;-69
2023/07/05 05:47:17;;;;;;;7.20;3.10;;;;;;;;;;5048367;28;20145;-69
2023/07/05 05:49:42;;;;;;;8.83;2.60;;;;;;;;;;5045671;28;20025;-69
2023/07/05 05:52:07;;;;;;;5.07;2.73;;;;;;;;;;5050781;28;20089;-70
2023/07/05 05:54:33;;;;;;;6.85;2.80;;;;;;;;;;5050530;28;22090;-69
2023/07/05 05:56:58;;;;;;;7.00;2.63;;;;;;;;;;5049960;28;20071;-70
2023/07/05 05:59:24;;;;;;;5.95;2.47;;;;;;;;;;5048033;28;20029;-70
2023/07/05 06:01:50;;;;;;;5.77;2.40;;;;;;;;;;5040969;28;20486;-69
2023/07/05 06:04:15;;;;;;;6.85;2.83;;;;;;;;;;5042821;28;20147;-69
2023/07/05 06:06:41;;;;;;;5.20;2.05;;;;;;;;;;5048617;28;20103;-70
2023/07/05 06:09:06;;;;;;;6.18;2.72;;;;;;;;;;5047161;28;20017;-69
2023/07/05 06:11:31;;;;;;;11.67;2.77;;;;;;;;;;5050651;28;20481;-69
2023/07/05 06:13:56;;;;;;;11.40;2.17;;;;;;;;;;5052050;28;20275;-69
2023/07/05 06:16:21;;;;;;;6.63;3.20;;;;;;;;;;5052119;28;20417;-70
2023/07/05 06:18:47;;;;;;;6.67;2.40;;;;;;;;;;5054611;28;20768;-70
2023/07/05 06:21:12;;;;;;;5.10;2.30;;;;;;;;;;5050507;28;20025;-70
2023/07/05 06:23:37;;;;;;;5.72;2.45;;;;;;;;;;5049409;28;20271;-69
2023/07/05 06:26:03;;;;;;;5.55;2.30;;;;;;;;;;5048084;28;20020;-69
2023/07/05 06:28:28;;;;;;;3.95;2.13;;;;;;;;;;5049874;28;20387;-69
2023/07/05 06:30:53;;;;;;;5.07;2.10;;;;;;;;;;5050330;28;20555;-69
2023/07/05 06:33:18;;;;;;;6.15;2.80;;;;;;;;;;5047055;28;20371;-69
2023/07/05 06:35:47;;;;;;;8.93;2.27;;;;;;;;;;5047420;28;20025;-69
2023/07/05 06:38:12;;;;;;;7.28;2.00;;;;;;;;;;5048131;28;20271;-69
2023/07/05 06:40:37;;;;;;;4.63;2.10;;;;;;;;;;5049911;28;20098;-69
2023/07/05 06:43:03;;;;;;;5.63;1.90;;;;;;;;;;5051224;28;20103;-69
2023/07/05 06:45:28;;;;;;;5.40;2.00;;;;;;;;;;5048991;28;20092;-69
2023/07/05 06:47:53;;;;;;;4.73;1.87;;;;;;;;;;5048700;28;20047;-69
2023/07/05 06:50:18;;;;;;;4.53;1.37;;;;;;;;;;5047782;28;20036;-70
2023/07/05 06:52:43;;;;;;;4.47;2.17;;;;;;;;;;5047204;28;20028;-70
2023/07/05 06:55:10;;;;;;;11.83;2.03;;;;;;;;;;5047130;28;20033;-70
2023/07/05 06:57:35;;;;;;;9.95;2.47;;;;;;;;;;5050445;28;20278;-70
2023/07/05 07:00:00;;;;;;;4.03;1.70;;;;;;;;;;5048548;28;20021;-70
2023/07/05 07:02:25;;;;;;;4.60;1.70;;;;;;;;;;5048826;28;20112;-70
2023/07/05 07:04:50;;;;;;;5.67;1.60;;;;;;;;;;5050248;28;20313;-70
2023/07/05 07:07:15;;;;;;;5.20;2.00;;;;;;;;;;5048194;28;20648;-69
2023/07/05 07:09:41;;;;;;;7.13;1.95;;;;;;;;;;5050230;28;20361;-69
2023/07/05 07:12:07;;;;;;;7.17;2.00;;;;;;;;;;5049949;28;20100;-69
2023/07/05 07:14:32;;;;;;;3.92;0.90;;;;;;;;;;5050232;28;20025;-69
2023/07/05 07:16:57;;;;;;;5.22;1.70;;;;;;;;;;5049656;28;20090;-69
2023/07/05 07:19:23;;;;;;;2.35;1.40;;;;;;;;;;5048008;28;20025;-69
2023/07/05 07:21:48;;;;;;;6.27;1.67;;;;;;;;;;5048530;28;20440;-69
2023/07/05 07:24:13;;;;;;;5.32;1.58;;;;;;;;;;5049717;28;20275;-70
2023/07/05 07:26:38;;;;;;;5.00;1.60;;;;;;;;;;5049573;28;20025;-70
2023/07/05 07:29:04;;;;;;;3.63;1.52;;;;;;;;;;5046677;28;20318;-70
2023/07/05 07:31:30;;;;;;;8.80;1.73;;;;;;;;;;5047905;28;20622;-70
2023/07/05 07:33:55;;;;;;;7.40;2.08;;;;;;;;;;5049424;28;20013;-70
2023/07/05 07:36:22;;;;;;;4.22;1.70;;;;;;;;;;5048777;28;20013;-69
2023/07/05 07:38:47;;;;;;;5.05;1.50;;;;;;;;;;5050659;28;20035;-69
2023/07/05 07:41:14;;;;;;;3.70;1.42;;;;;;;;;;5046718;28;20747;-69
2023/07/05 07:43:39;;;;;;;4.57;1.58;;;;;;;;;;5050445;28;20021;-69
2023/07/05 07:46:08;;;;;;;7.25;1.30;;;;;;;;;;5047460;28;20478;-70
2023/07/05 07:48:33;;;;;;;2.97;1.30;;;;;;;;;;5047281;28;20029;-70
2023/07/05 07:50:58;;;;;;;1.73;0.93;;;;;;;;;;5048690;28;20382;-70
2023/07/05 07:53:24;;;;;;;5.27;1.37;;;;;;;;;;5050534;28;20128;-70
2023/07/05 07:55:49;;;;;;;2.83;1.50;;;;;;;;;;5045980;28;20980;-70
2023/07/05 07:58:14;;;;;;;4.10;1.03;;;;;;;;;;5044696;28;20341;-70
2023/07/05 08:00:39;;;;;;;9.02;1.35;;;;;;;;;;5046123;28;20028;-70
2023/07/05 08:03:04;;;;;;;6.20;1.07;;;;;;;;;;5047064;28;20100;-70
2023/07/05 08:05:30;;;;;;;7.33;1.60;;;;;;;;;;5048147;28;20755;-70
2023/07/05 08:07:55;;;;;;;2.42;1.05;;;;;;;;;;5044745;28;20107;-70
2023/07/05 08:10:20;;;;;;;2.40;1.10;;;;;;;;;;5048973;28;20047;-70
2023/07/05 08:12:45;;;;;;;2.83;1.10;;;;;;;;;;5047476;28;20275;-70
2023/07/05 08:15:10;;;;;;;6.13;1.30;;;;;;;;;;5043789;28;20079;-70
2023/07/05 08:17:35;;;;;;;3.97;1.07;;;;;;;;;;5048667;28;20078;-70
2023/07/05 08:20:01;;;;;;;3.17;1.37;;;;;;;;;;5047236;28;20279;-70
2023/07/05 08:22:26;;;;;;;3.22;0.90;;;;;;;;;;5043566;28;20275;-70
2023/07/05 08:24:51;;;;;;;1.87;0.93;;;;;;;;;;5043478;28;20024;-70
2023/07/05 08:27:16;;;;;;;3.78;1.50;;;;;;;;;;5046960;28;20271;-70
2023/07/05 08:29:41;;;;;;;4.80;1.43;;;;;;;;;;5048681;28;20028;-70
2023/07/05 08:32:07;;;;;;;2.17;0.90;;;;;;;;;;5050491;28;20032;-70
2023/07/05 08:34:32;;;;;;;7.60;1.52;;;;;;;;;;5046260;28;20332;-70
2023/07/05 08:36:57;;;;;;;6.28;1.20;;;;;;;;;;5049636;28;20052;-70
2023/07/05 08:39:22;;;;;;;2.70;1.40;;;;;;;;;;5047133;28;20052;-70
2023/07/05 08:41:50;;;;;;;5.30;1.10;;;;;;;;;;5043426;28;20347;-70
2023/07/05 08:44:25;;;;;;;4.88;1.33;;;;;;;;;;5043092;28;20278;-70
2023/07/05 08:46:59;;;;;;;2.60;1.17;;;;;;;;;;5046694;28;20041;-70
2023/07/05 08:49:30;;;;;;;8.80;1.10;;;;;;;;;;5045929;28;20031;-70
2023/07/05 08:51:56;;;;;;;6.07;1.27;;;;;;;;;;5047203;28;20035;-70
2023/07/05 08:54:22;;;;;;;7.38;1.30;;;;;;;;;;5047051;28;20010;-70
2023/07/05 08:56:48;;;;;;;9.00;1.10;;;;;;;;;;5044978;28;20366;-70
2023/07/05 08:59:22;;;;;;;5.22;1.02;;;;;;;;;;5046928;28;20017;-70
2023/07/05 09:01:49;;;;;;;4.90;1.33;;;;;;;;;;5045937;28;20009;-70
2023/07/05 09:04:22;;;;;;;3.85;1.30;;;;;;;;;;5045653;28;20035;-70
2023/07/05 09:06:56;;;;;;;4.05;0.90;;;;;;;;;;5048690;28;20024;-70
2023/07/05 09:09:24;;;;;;;2.72;1.15;;;;;;;;;;5048694;28;20009;-70
2023/07/05 09:12:08;;;;;;;3.70;0.90;;;;;;;;;;5050546;28;20017;-70
2023/07/05 09:14:41;;;;;;;2.65;1.00;;;;;;;;;;5051510;28;20013;-71
2023/07/05 09:17:20;;;;;;;5.32;0.98;;;;;;;;;;5052890;28;20027;-71
2023/07/05 09:19:45;;;;;;;7.40;1.10;;;;;;;;;;5049417;28;20020;-70
2023/07/05 09:22:14;;;;;;;8.05;1.20;;;;;;;;;;5051279;28;20029;-70
2023/07/05 09:24:40;;;;;;;3.20;1.00;;;;;;;;;;5048166;28;20071;-70
2023/07/05 09:27:09;;;;;;;5.13;0.95;;;;;;;;;;5050146;28;20075;-70
2023/07/05 09:29:38;;;;;;;3.58;0.80;;;;;;;;;;5052054;28;20028;-70
2023/07/05 09:32:11;;;;;;;7.20;1.10;;;;;;;;;;5052837;28;20048;-70
2023/07/05 09:34:43;;;;;;;16.65;2.33;;;;;;;;;;5051341;28;20025;-70
2023/07/05 09:37:29;;;;;;;9.48;1.48;;;;;;;;;;5048201;28;20103;-70
2023/07/05 09:40:15;;;;;;;3.88;1.33;;;;;;;;;;5051200;28;20043;-71
2023/07/05 09:42:58;;;;;;;10.30;1.25;;;;;;;;;;5062089;28;20043;-70
2023/07/05 09:45:24;;;;;;;9.90;1.42;;;;;;;;;;5052657;28;20013;-70
2023/07/05 09:47:58;;;;;;;4.68;1.33;;;;;;;;;;5050537;28;20047;-70
2023/07/05 09:50:23;;;;;;;8.23;1.35;;;;;;;;;;5050338;28;20027;-70
2023/07/05 09:52:52;;;;;;;3.70;1.00;;;;;;;;;;5049706;28;20147;-70
2023/07/05 09:55:19;;;;;;;3.92;0.90;;;;;;;;;;5051875;28;20371;-70
2023/07/05 09:57:45;;;;;;;7.15;1.00;;;;;;;;;;5050395;28;20021;-71
2023/07/05 10:00:20;;;;;;;3.63;1.20;;;;;;;;;;5051212;28;20120;-71
2023/07/05 10:02:47;;;;;;;10.43;1.50;;;;;;;;;;5048763;28;20071;-71
2023/07/05 10:05:13;;;;;;;13.65;1.42;;;;;;;;;;5048372;28;20452;-71
2023/07/05 10:07:51;;;;;;;3.67;1.20;;;;;;;;;;5047277;28;20025;-71
2023/07/05 10:10:16;;;;;;;4.00;1.60;;;;;;;;;;5050751;28;20378;-71
2023/07/05 10:12:43;;;;;;;8.07;1.90;;;;;;;;;;5051184;28;20036;-71
2023/07/05 10:15:21;;;;;;;7.60;2.70;;;;;;;;;;5052108;28;20366;-71
2023/07/05 10:17:47;;;;;;;6.75;1.15;;;;;;;;;;5049487;28;20108;-71
2023/07/05 10:20:21;;;;;;;6.75;1.30;;;;;;;;;;5049772;28;20112;-71
2023/07/05 10:22:46;;;;;;;8.13;1.48;;;;;;;;;;5050578;28;20057;-71
2023/07/05 10:25:16;;;;;;;10.93;1.60;;;;;;;;;;5049373;28;20029;-71
2023/07/05 10:27:48;;;;;;;9.93;1.20;;;;;;;;;;5050542;28;20041;-71
2023/07/05 10:30:14;;;;;;;12.27;1.38;;;;;;;;;;5051323;28;20025;-71
2023/07/05 10:32:44;;;;;;;9.15;1.45;;;;;;;;;;5046853;28;20062;-71
2023/07/05 10:35:18;;;;;;;6.32;1.20;;;;;;;;;;5046890;28;20451;-71
2023/07/05 10:37:44;;;;;;;9.32;2.03;;;;;;;;;;5051123;28;20040;-71
2023/07/05 10:40:09;;;;;;;8.37;1.43;;;;;;;;;;5051006;28;20027;-71
2023/07/05 10:42:36;;;;;;;8.13;1.55;;;;;;;;;;5049624;28;20030;-71
2023/07/05 10:45:03;;;;;;;9.60;1.80;;;;;;;;;;5051699;28;20025;-71
2023/07/05 10:47:29;;;;;;;7.57;1.63;;;;;;;;;;5046746;28;20031;-72
2023/07/05 10:49:56;;;;;;;9.30;1.73;;;;;;;;;;5049128;28;20013;-72
2023/07/05 10:52:23;;;;;;;8.15;1.52;;;;;;;;;;5050208;28;20386;-72
2023/07/05 10:55:08;;;;;;;13.30;1.52;;;;;;;;;;5050751;28;20024;-72
2023/07/05 10:57:35;;;;;;;20.05;1.80;;;;;;;;;;5045634;28;20074;-72
2023/07/05 11:00:12;;;;;;;12.93;1.48;;;;;;;;;;5049169;28;20025;-70
2023/07/05 11:02:37;;;;;;;9.40;1.70;;;;;;;;;;5044321;28;20056;-71
2023/07/05 11:05:04;;;;;;;9.67;1.27;;;;;;;;;;5044891;28;20052;-71
2023/07/05 11:07:31;;;;;;;8.07;1.55;;;;;;;;;;5050229;28;20033;-71
2023/07/05 11:09:57;;;;;;;4.53;1.20;;;;;;;;;;5046581;28;20084;-71
2023/07/05 11:12:25;;;;;;;15.43;2.08;;;;;;;;;;5049478;28;20111;-71
2023/07/05 11:14:51;;;;;;;12.35;1.13;;;;;;;;;;5049515;28;20029;-71
2023/07/05 11:17:23;;;;;;;12.15;1.20;;;;;;;;;;5044479;28;20025;-72
2023/07/05 11:19:48;;;;;;;8.63;1.17;;;;;;;;;;5050664;28;20367;-72
2023/07/05 11:22:32;;;;;;;14.23;1.77;;;;;;;;;;5046086;28;20017;-72
2023/07/05 11:24:57;;;;;;;8.75;1.00;;;;;;;;;;5045518;28;20275;-72
2023/07/05 11:27:22;;;;;;;18.87;1.47;;;;;;;;;;5046694;28;20021;-72
2023/07/05 11:29:49;;;;;;;11.73;1.38;;;;;;;;;;5048306;28;20501;-72
2023/07/05 11:32:14;;;;;;;6.78;1.45;;;;;;;;;;5048009;28;20021;-72
2023/07/05 11:34:44;;;;;;;6.90;1.40;;;;;;;;;;5050178;28;20074;-72
2023/07/05 11:37:09;;;;;;;5.50;1.23;;;;;;;;;;5050054;28;20052;-72
2023/07/05 11:39:51;;;;;;;11.25;1.42;;;;;;;;;;5045088;28;20109;-72
2023/07/05 11:42:16;;;;;;;8.05;1.15;;;;;;;;;;5046650;28;20521;-71
2023/07/05 11:44:42;;;;;;;10.73;1.40;;;;;;;;;;5049396;28;20100;-72
2023/07/05 11:47:11;;;;;;;10.30;1.10;;;;;;;;;;5044420;28;20119;-71
2023/07/05 11:49:41;;;;;;;8.18;1.85;;;;;;;;;;5046327;28;20108;-71
2023/07/05 11:52:18;;;;;;;9.65;2.03;;;;;;;;;;5048252;28;20482;-72
2023/07/05 11:54:52;;;;;;;8.63;1.30;;;;;;;;;;5048412;28;20024;-72
2023/07/05 11:57:17;;;;;;;7.70;1.02;;;;;;;;;;5050195;28;20024;-71
2023/07/05 11:59:49;;;;;;;8.15;1.33;;;;;;;;;;5048071;28;20107;-72
2023/07/05 12:02:25;;;;;;;13.27;2.83;;;;;;;;;;5045988;28;20021;-72
2023/07/05 12:04:54;;;;;;;7.32;2.97;;;;;;;;;;5045327;28;20063;-72
2023/07/05 12:07:20;;;;;;;3.65;1.10;;;;;;;;;;5049057;28;20470;-72
2023/07/05 12:09:45;;;;;;;7.45;2.05;;;;;;;;;;5045815;28;20104;-72
2023/07/05 12:12:11;;;;;;;8.52;1.42;;;;;;;;;;5044898;28;20112;-72
2023/07/05 12:14:36;;;;;;;12.18;1.52;;;;;;;;;;5044786;28;20033;-72
2023/07/05 12:17:02;;;;;;;11.33;1.97;;;;;;;;;;5045761;28;20028;-72
2023/07/05 12:19:29;;;;;;;6.93;1.40;;;;;;;;;;5049172;28;20033;-72
2023/07/05 12:21:57;;;;;;;8.15;1.33;;;;;;;;;;5048437;28;20025;-72
2023/07/05 12:24:22;;;;;;;4.50;1.58;;;;;;;;;;5046487;28;20450;-72
2023/07/05 12:26:47;;;;;;;10.70;1.58;;;;;;;;;;5048323;28;20045;-72
2023/07/05 12:29:20;;;;;;;14.45;1.75;;;;;;;;;;5048661;28;20017;-72
2023/07/05 12:31:45;;;;;;;7.00;1.73;;;;;;;;;;5044616;28;20075;-72
2023/07/05 12:34:16;;;;;;;12.37;1.27;;;;;;;;;;5047246;28;20017;-72
2023/07/05 12:36:41;;;;;;;10.00;2.00;;;;;;;;;;5047800;28;20275;-72
2023/07/05 12:39:07;;;;;;;6.68;1.20;;;;;;;;;;5047028;28;20050;-72
2023/07/05 12:41:33;;;;;;;7.70;1.25;;;;;;;;;;5043553;28;20029;-72
2023/07/05 12:43:59;;;;;;;7.77;2.07;;;;;;;;;;5047524;28;20813;-72
2023/07/05 12:46:26;;;;;;;8.40;1.70;;;;;;;;;;5044756;28;20536;-72
2023/07/05 12:48:51;;;;;;;10.45;1.83;;;;;;;;;;5050099;28;20028;-72
2023/07/05 12:51:19;;;;;;;8.70;1.58;;;;;;;;;;5049203;28;20017;-72
2023/07/05 12:53:48;;;;;;;7.60;1.85;;;;;;;;;;5049431;28;20430;-72
2023/07/05 12:56:17;;;;;;;5.53;1.80;;;;;;;;;;5048235;28;20082;-72
2023/07/05 12:58:50;;;;;;;11.00;2.95;;;;;;;;;;5047201;28;20118;-72
2023/07/05 13:01:18;;;;;;;3.63;1.55;;;;;;;;;;5044469;28;20028;-72
2023/07/05 13:03:44;;;;;;;11.20;1.70;;;;;;;;;;5046250;28;20492;-73
2023/07/05 13:06:10;;;;;;;8.60;1.27;;;;;;;;;;5048757;28;20028;-72
2023/07/05 13:08:36;;;;;;;9.85;2.28;;;;;;;;;;5046304;28;20425;-72
2023/07/05 13:11:03;;;;;;;9.35;1.65;;;;;;;;;;5043246;28;20040;-72
2023/07/05 13:13:32;;;;;;;2.67;1.17;;;;;;;;;;5047453;28;20021;-72
2023/07/05 13:16:16;;;;;;;5.32;1.33;;;;;;;;;;5048899;28;20107;-72
2023/07/05 13:18:53;;;;;;;4.50;1.10;;;;;;;;;;5044795;28;20036;-72
2023/07/05 13:21:18;;;;;;;3.80;1.58;;;;;;;;;;5045304;28;20025;-72
2023/07/05 13:23:48;;;;;;;5.43;1.67;;;;;;;;;;5046752;28;20029;-72
2023/07/05 13:26:36;;;;;;;6.93;1.45;;;;;;;;;;5044332;28;20059;-72
2023/07/05 13:29:02;;;;;;;7.70;1.45;;;;;;;;;;5046593;28;20580;-72
2023/07/05 13:31:28;;;;;;;5.72;1.35;;;;;;;;;;5047853;28;20450;-72
2023/07/05 13:33:54;;;;;;;5.60;1.50;;;;;;;;;;5047031;28;20104;-72
2023/07/05 13:36:19;;;;;;;3.08;1.45;;;;;;;;;;5048510;28;20044;-72
2023/07/05 13:38:44;;;;;;;7.00;1.45;;;;;;;;;;5048456;28;20028;-72
2023/07/05 13:41:09;;;;;;;4.90;1.53;;;;;;;;;;5046697;28;20243;-72
2023/07/05 13:43:35;;;;;;;4.60;1.50;;;;;;;;;;5046039;28;20933;-72
2023/07/05 13:46:01;;;;;;;5.43;1.33;;;;;;;;;;5048536;28;20029;-72
2023/07/05 13:48:27;;;;;;;9.95;1.55;;;;;;;;;;5049069;28;20309;-72
2023/07/05 13:50:52;;;;;;;2.13;1.02;;;;;;;;;;5042691;28;20031;-72
2023/07/05 13:53:24;;;;;;;8.73;1.63;;;;;;;;;;5047895;28;20370;-72
2023/07/05 13:55:50;;;;;;;6.05;1.02;;;;;;;;;;5046434;28;20091;-72
2023/07/05 13:58:18;;;;;;;8.40;1.10;;;;;;;;;;5051130;28;20025;-72
2023/07/05 14:00:45;;;;;;;8.63;1.30;;;;;;;;;;5048426;28;20368;-72
2023/07/05 14:03:10;;;;;;;8.15;1.55;;;;;;;;;;5051032;28;20025;-72
2023/07/05 14:05:36;;;;;;;6.00;0.90;;;;;;;;;;5051188;28;20032;-72
2023/07/05 14:08:02;;;;;;;3.70;1.30;;;;;;;;;;5049440;28;20741;-73
2023/07/05 14:10:31;;;;;;;3.72;0.85;;;;;;;;;;5049601;28;20031;-72
2023/07/05 14:12:56;;;;;;;3.28;1.15;;;;;;;;;;5050481;28;20021;-73
2023/07/05 14:15:34;;;;;;;7.50;1.13;;;;;;;;;;5051450;28;20032;-73
2023/07/05 14:17:59;;;;;;;16.50;1.50;;;;;;;;;;5051262;28;20748;-73
2023/07/05 14:20:30;;;;;;;6.00;1.30;;;;;;;;;;5048899;28;20043;-73
2023/07/05 14:22:55;;;;;;;10.32;1.27;;;;;;;;;;5050309;28;20783;-73
2023/07/05 14:25:21;;;;;;;4.05;1.27;;;;;;;;;;5051092;28;20052;-72
2023/07/05 14:27:46;;;;;;;3.08;1.02;;;;;;;;;;5051194;28;20378;-73
2023/07/05 14:30:11;;;;;;;5.95;1.40;;;;;;;;;;5047964;28;20377;-73
2023/07/05 14:32:37;;;;;;;3.90;1.30;;;;;;;;;;5050148;28;20033;-73
2023/07/05 14:35:04;;;;;;;7.88;1.27;;;;;;;;;;5049966;28;20017;-73
2023/07/05 14:37:29;;;;;;;6.13;2.22;;;;;;;;;;5040826;28;20025;-73
2023/07/05 14:39:54;;;;;;;7.07;1.23;;;;;;;;;;5052957;28;20017;-72